KJOT

Joliet Regional Airport

Joliet, Illinois, USA
METAR KJOT 231155Z AUTO 34003KT 10SM CLR 05/M01 A3021 RMK AO2 T00461010 10076 20046
Observed Flight Rules
Oct-23 @ 11:55 UTC (22 minutes ago) Visual Flight Rules
Wind Visibility Clouds
340° at 3 knots 10 miles
  • Clear skies
Temperatures Readings
Current 5°C / 41°F
Dewpoint -1°C / 30°F
Humidity 66%
Altimeter 30.21" Hg
Pressure 1023 hPa
Elevation 177
METAR KJOT 231155Z AUTO 34003KT 10SM CLR 05/M01 A3021 RMK AO2 T00461010 10076 20046
Observed Flight Rules
Oct-23 @ 11:55 UTC
(22 minutes ago)
VFR
Wind Visibility
340° at 3 knots 10 miles
Clouds
  • Clear skies
Temperature Dewpoint
5°C / 41°F -1°C / 30°F
Humidity Altimeter Pressure
66% 30.21" Hg 1023 hPa